createdAt,value
2024-05-09T00:00:42.830Z,15.1
2024-05-09T00:03:37.654Z,15.1
2024-05-09T00:06:37.146Z,15.1
2024-05-09T00:09:37.406Z,15.1
2024-05-09T00:12:36.763Z,15.1
2024-05-09T00:15:37.818Z,15.1
2024-05-09T00:18:37.840Z,15.1
2024-05-09T00:21:37.254Z,15.1
2024-05-09T00:24:36.803Z,15.1
2024-05-09T00:27:37.052Z,15.1
2024-05-09T00:30:38.356Z,15.2
2024-05-09T00:33:38.375Z,15.2
2024-05-09T00:36:37.374Z,15.2
2024-05-09T00:39:37.636Z,15.2
2024-05-09T00:42:37.189Z,15.2
2024-05-09T00:45:37.617Z,15.2
2024-05-09T00:48:37.743Z,15.1
2024-05-09T00:51:37.391Z,15.1
2024-05-09T00:54:36.816Z,15.1
2024-05-09T00:57:37.239Z,15.1
2024-05-09T01:00:42.405Z,15
2024-05-09T01:03:37.789Z,15
2024-05-09T01:06:36.748Z,15
2024-05-09T01:09:36.963Z,14.8
2024-05-09T01:12:37.679Z,14.8
2024-05-09T01:15:37.099Z,14.8
2024-05-09T01:18:37.112Z,14.7
2024-05-09T01:21:37.414Z,14.7
2024-05-09T01:24:37.037Z,14.7
2024-05-09T01:27:37.442Z,14.7
2024-05-09T01:30:39.324Z,14.7
2024-05-09T01:33:39.152Z,14.7
2024-05-09T01:36:36.815Z,14.7
2024-05-09T01:39:36.970Z,14.6
2024-05-09T01:42:37.404Z,14.6
2024-05-09T01:45:36.714Z,14.6
2024-05-09T01:48:37.558Z,14.6
2024-05-09T01:51:36.906Z,14.6
2024-05-09T01:54:37.160Z,14.6
2024-05-09T01:57:37.381Z,14.6
2024-05-09T02:00:44.099Z,14.6
2024-05-09T02:03:38.109Z,14.6
2024-05-09T02:06:36.872Z,14.6
2024-05-09T02:09:37.105Z,14.6
2024-05-09T02:12:37.442Z,14.6
2024-05-09T02:15:36.691Z,14.6
2024-05-09T02:18:37.457Z,14.6
2024-05-09T02:21:36.934Z,14.6
2024-05-09T02:24:37.396Z,14.6
2024-05-09T02:27:36.722Z,14.6
2024-05-09T02:30:43.251Z,14.6
2024-05-09T02:33:38.834Z,14.6
2024-05-09T02:36:37.470Z,14.6
2024-05-09T02:39:36.802Z,14.7
2024-05-09T02:42:37.364Z,14.7
2024-05-09T02:45:36.744Z,14.7
2024-05-09T02:48:38.161Z,14.7
2024-05-09T02:51:36.942Z,14.7
2024-05-09T02:54:37.672Z,14.7
2024-05-09T02:57:36.954Z,14.7
2024-05-09T03:00:43.775Z,14.7
2024-05-09T03:03:38.503Z,14.7
2024-05-09T03:06:37.362Z,14.7
2024-05-09T03:09:36.677Z,14.7
2024-05-09T03:12:40.162Z,14.7
2024-05-09T03:15:37.866Z,14.7
2024-05-09T03:18:38.086Z,14.7
2024-05-09T03:21:37.776Z,14.7
2024-05-09T03:24:37.326Z,14.7
2024-05-09T03:27:37.731Z,14.7
2024-05-09T03:30:43.883Z,14.7
2024-05-09T03:33:38.610Z,14.7
2024-05-09T03:36:37.637Z,14.7
2024-05-09T03:39:37.211Z,14.7
2024-05-09T03:42:36.605Z,14.7
2024-05-09T03:45:36.940Z,14.7
2024-05-09T03:48:38.001Z,14.6
2024-05-09T03:51:37.602Z,14.6
2024-05-09T03:54:37.155Z,14.6
2024-05-09T03:57:37.533Z,14.6
2024-05-09T04:00:41.135Z,14.6
2024-05-09T04:03:37.431Z,14.6
2024-05-09T04:06:37.304Z,14.6
2024-05-09T04:09:36.658Z,14.4
2024-05-09T04:12:37.526Z,14.4
2024-05-09T04:15:37.063Z,14.4
2024-05-09T04:18:36.953Z,14.3
2024-05-09T04:21:37.284Z,14.3
2024-05-09T04:24:36.634Z,14.3
2024-05-09T04:27:37.283Z,14.3
2024-05-09T04:30:43.705Z,14.3
2024-05-09T04:33:37.948Z,14.3
2024-05-09T04:36:36.600Z,14.3
2024-05-09T04:39:36.766Z,14.3
2024-05-09T04:42:37.077Z,14.3
2024-05-09T04:45:37.329Z,14.3
2024-05-09T04:48:37.202Z,14.4
2024-05-09T04:51:36.785Z,14.4
2024-05-09T04:54:37.437Z,14.4
2024-05-09T04:57:37.641Z,14.4
2024-05-09T05:03:39.893Z,14.5
2024-05-09T05:06:37.066Z,14.5
2024-05-09T05:09:37.611Z,14.7
2024-05-09T05:12:38.535Z,14.7
2024-05-09T05:15:36.961Z,14.7
2024-05-09T05:18:38.973Z,14.8
2024-05-09T05:21:37.459Z,14.8
2024-05-09T05:24:36.842Z,14.8
2024-05-09T05:27:37.175Z,14.8
2024-05-09T05:30:36.622Z,15.1
2024-05-09T05:33:37.700Z,15.1
2024-05-09T05:36:36.515Z,15.1
2024-05-09T05:39:36.839Z,15.2
2024-05-09T05:42:37.257Z,15.2
2024-05-09T05:45:39.777Z,15.2
2024-05-09T05:48:37.517Z,15.4
2024-05-09T05:51:36.978Z,15.4
2024-05-09T05:54:37.322Z,15.4
2024-05-09T05:57:37.556Z,15.4
2024-05-09T06:00:43.303Z,15.5
2024-05-09T06:03:37.606Z,15.5
2024-05-09T06:06:37.555Z,15.5
2024-05-09T06:09:38.702Z,15.7
2024-05-09T06:12:37.585Z,15.7
2024-05-09T06:15:37.238Z,15.7
2024-05-09T06:18:37.780Z,15.9
2024-05-09T06:21:37.606Z,15.9
2024-05-09T06:24:37.199Z,15.9
2024-05-09T06:27:37.418Z,15.9
2024-05-09T06:30:43.760Z,16
2024-05-09T06:33:38.192Z,16
2024-05-09T06:36:37.147Z,16
2024-05-09T06:39:37.428Z,16
2024-05-09T06:42:36.867Z,16
2024-05-09T06:45:37.526Z,16
2024-05-09T06:48:37.978Z,16
2024-05-09T06:51:37.731Z,16
2024-05-09T06:54:37.314Z,16
2024-05-09T06:57:43.504Z,16
2024-05-09T07:00:42.935Z,17.5
2024-05-09T07:03:38.110Z,17.5
2024-05-09T07:06:37.247Z,17.5
2024-05-09T07:09:37.586Z,17.5
2024-05-09T07:12:37.116Z,17.5
2024-05-09T07:15:37.860Z,17.5
2024-05-09T07:18:38.813Z,17.5
2024-05-09T07:21:38.270Z,17.5
2024-05-09T07:24:36.901Z,17.5
2024-05-09T07:27:37.203Z,17.5
2024-05-09T07:30:36.988Z,19
2024-05-09T07:33:38.080Z,19
2024-05-09T07:36:36.752Z,19
2024-05-09T07:39:37.239Z,19
2024-05-09T07:42:36.683Z,19
2024-05-09T07:46:07.062Z,19
2024-05-09T07:54:38.164Z,20
2024-05-09T07:57:37.126Z,20
2024-05-09T08:00:37.355Z,19.6
2024-05-09T08:03:37.525Z,19.6
2024-05-09T08:06:37.871Z,19.6
2024-05-09T08:09:39.301Z,19.7
2024-05-09T08:12:39.093Z,19.7
2024-05-09T08:15:38.655Z,19.7
2024-05-09T08:18:40.232Z,19.7
2024-05-09T08:21:39.807Z,19.7
2024-05-09T08:24:37.544Z,19.7
2024-05-09T08:27:37.616Z,19.7
2024-05-09T08:30:39.647Z,19.7
2024-05-09T08:33:39.060Z,19.7
2024-05-09T08:36:37.257Z,19.7
2024-05-09T08:39:39.926Z,19.7
2024-05-09T08:42:39.131Z,19.7
2024-05-09T08:45:38.146Z,19.7
2024-05-09T08:48:37.985Z,19.7
2024-05-09T08:51:38.518Z,19.7
2024-05-09T08:54:37.594Z,19.7
2024-05-09T08:57:37.241Z,19.7
2024-05-09T09:00:38.845Z,19.7
2024-05-09T09:03:38.998Z,19.7
2024-05-09T09:06:44.338Z,19.7
2024-05-09T09:09:38.584Z,19.7
2024-05-09T09:12:39.063Z,19.7
2024-05-09T09:15:38.701Z,19.7
2024-05-09T09:18:41.352Z,19.7
2024-05-09T09:21:37.570Z,19.7
2024-05-09T09:24:37.843Z,19.7
2024-05-09T09:27:37.907Z,19.7
2024-05-09T09:30:41.235Z,19.7
2024-05-09T09:33:38.692Z,19.7
2024-05-09T09:36:38.809Z,19.7
2024-05-09T09:39:37.728Z,19.7
2024-05-09T09:42:37.956Z,19.7
2024-05-09T09:45:37.903Z,19.7
2024-05-09T09:48:37.867Z,19.7
2024-05-09T09:51:37.733Z,19.7
2024-05-09T09:54:37.648Z,19.7
2024-05-09T09:57:37.344Z,19.7
2024-05-09T10:00:37.649Z,19.7
2024-05-09T10:03:38.704Z,19.7
2024-05-09T10:06:36.948Z,19.7
2024-05-09T10:09:37.498Z,19.7
2024-05-09T10:12:37.715Z,19.7
2024-05-09T10:15:37.722Z,19.7
2024-05-09T10:18:38.402Z,19.7
2024-05-09T10:21:37.470Z,19.7
2024-05-09T10:24:37.486Z,19.7
2024-05-09T10:27:37.308Z,19.7
2024-05-09T10:30:42.729Z,19.7
2024-05-09T10:33:38.143Z,19.7
2024-05-09T10:36:37.250Z,19.7
2024-05-09T10:39:37.832Z,19.7
2024-05-09T10:42:37.384Z,19.7
2024-05-09T10:45:36.930Z,19.7
2024-05-09T10:48:38.533Z,19.7
2024-05-09T10:51:37.733Z,19.7
2024-05-09T10:54:37.802Z,19.7
2024-05-09T10:57:37.920Z,19.7
2024-05-09T11:00:38.411Z,19.7
2024-05-09T11:03:39.740Z,19.7
2024-05-09T11:06:36.986Z,19.7
2024-05-09T11:09:37.963Z,19.7
2024-05-09T11:12:39.947Z,19.7
2024-05-09T11:15:37.479Z,19.7
2024-05-09T11:18:40.735Z,19.7
2024-05-09T11:21:37.682Z,19.7
2024-05-09T11:24:37.264Z,19.7
2024-05-09T11:27:38.024Z,19.7
2024-05-09T11:30:37.113Z,19.7
2024-05-09T11:33:39.003Z,19.7
2024-05-09T11:36:37.368Z,19.7
2024-05-09T11:39:37.119Z,19.7
2024-05-09T11:42:36.923Z,19.7
2024-05-09T11:45:37.831Z,19.7
2024-05-09T11:48:38.375Z,22.4
2024-05-09T11:51:38.673Z,22.4
2024-05-09T11:54:37.495Z,22.4
2024-05-09T11:57:37.131Z,22.4
2024-05-09T12:00:38.772Z,22.6
2024-05-09T12:03:38.148Z,22.6
2024-05-09T12:06:37.117Z,22.6
2024-05-09T12:09:38.056Z,22.6
2024-05-09T12:12:38.325Z,22.6
2024-05-09T12:15:39.880Z,22.6
2024-05-09T12:18:38.133Z,22.6
2024-05-09T12:21:37.718Z,22.6
2024-05-09T12:24:37.443Z,22.6
2024-05-09T12:27:37.174Z,22.6
2024-05-09T12:30:42.560Z,22.6
2024-05-09T12:33:37.778Z,22.6
2024-05-09T12:36:39.464Z,22.6
2024-05-09T12:39:37.252Z,22.6
2024-05-09T12:42:37.163Z,22.6
2024-05-09T12:45:40.703Z,22.6
2024-05-09T12:48:38.363Z,22.3
2024-05-09T12:51:37.190Z,22.3
2024-05-09T12:54:36.985Z,22.3
2024-05-09T12:57:37.746Z,22.3
2024-05-09T13:00:38.043Z,22.3
2024-05-09T13:03:38.462Z,22.3
2024-05-09T13:06:37.752Z,22.3
2024-05-09T13:09:37.469Z,22.3
2024-05-09T13:12:37.045Z,22.3
2024-05-09T13:15:37.863Z,22.3
2024-05-09T13:18:38.052Z,22.3
2024-05-09T13:21:39.970Z,22.3
2024-05-09T13:24:39.935Z,22.3
2024-05-09T13:27:37.576Z,22.3
2024-05-09T13:30:43.136Z,22.3
2024-05-09T13:33:37.940Z,22.3
2024-05-09T13:36:37.125Z,22.3
2024-05-09T13:39:37.970Z,22.3
2024-05-09T13:42:37.992Z,22.3
2024-05-09T13:45:37.829Z,22.3
2024-05-09T13:48:38.211Z,22.3
2024-05-09T13:51:37.076Z,22.3
2024-05-09T13:54:36.882Z,22.3
2024-05-09T13:57:37.512Z,22.3
2024-05-09T14:00:50.061Z,22.3
2024-05-09T14:03:38.074Z,22.3
2024-05-09T14:06:37.372Z,22.3
2024-05-09T14:09:37.006Z,22.3
2024-05-09T14:12:37.784Z,22.3
2024-05-09T14:15:38.028Z,22.3
2024-05-09T14:18:37.277Z,22.3
2024-05-09T14:21:37.963Z,22.3
2024-05-09T14:24:37.550Z,22.3
2024-05-09T14:27:37.467Z,22.3
2024-05-09T14:30:40.425Z,22.8
2024-05-09T14:33:38.056Z,22.8
2024-05-09T14:36:37.179Z,22.8
2024-05-09T14:39:37.853Z,23.1
2024-05-09T14:42:37.588Z,23.1
2024-05-09T14:45:37.487Z,23.1
2024-05-09T14:48:37.535Z,23.1
2024-05-09T14:51:37.390Z,23.1
2024-05-09T14:54:37.160Z,23.1
2024-05-09T14:57:37.799Z,23.1
2024-05-09T15:00:50.939Z,23.1
2024-05-09T15:03:38.224Z,23.1
2024-05-09T15:06:37.228Z,23.1
2024-05-09T15:09:36.845Z,23.3
2024-05-09T15:12:37.608Z,23.3
2024-05-09T15:15:38.011Z,23.3
2024-05-09T15:18:43.109Z,23.3
2024-05-09T15:21:37.622Z,23.3
2024-05-09T15:24:42.361Z,23.3
2024-05-09T15:27:36.918Z,23.3
2024-05-09T15:30:43.947Z,23.3
2024-05-09T15:33:38.268Z,23.3
2024-05-09T15:36:43.114Z,23.3
2024-05-09T15:39:38.157Z,23.3
2024-05-09T15:42:41.774Z,23.3
2024-05-09T15:45:37.296Z,23.3
2024-05-09T15:48:43.691Z,23.3
2024-05-09T15:51:37.480Z,23.3
2024-05-09T15:54:37.383Z,23.3
2024-05-09T15:57:37.204Z,23.3
2024-05-09T16:00:48.704Z,23.3
2024-05-09T16:03:37.591Z,23.3
2024-05-09T16:06:37.527Z,23.3
2024-05-09T16:09:37.235Z,23.3
2024-05-09T16:12:37.975Z,23.3
2024-05-09T16:15:37.806Z,23.3
2024-05-09T16:18:36.992Z,23.3
2024-05-09T16:21:38.063Z,23.3
2024-05-09T16:24:37.792Z,23.3
2024-05-09T16:27:38.613Z,23.3
2024-05-09T16:30:37.808Z,22.8
2024-05-09T16:33:38.611Z,22.8
2024-05-09T16:36:37.572Z,22.8
2024-05-09T16:39:37.331Z,22.8
2024-05-09T16:42:37.303Z,22.8
2024-05-09T16:45:37.475Z,22.8
2024-05-09T16:48:37.971Z,22.8
2024-05-09T16:51:37.870Z,22.8
2024-05-09T16:54:37.811Z,22.8
2024-05-09T16:57:37.388Z,22.8
2024-05-09T17:03:39.061Z,22.8
2024-05-09T17:06:37.271Z,22.8
2024-05-09T17:09:37.708Z,22.8
2024-05-09T17:12:37.490Z,22.8
2024-05-09T17:15:40.638Z,22.8
2024-05-09T17:18:37.960Z,22.8
2024-05-09T17:21:38.210Z,22.8
2024-05-09T17:24:37.295Z,22.8
2024-05-09T17:27:37.929Z,22.8
2024-05-09T17:30:43.315Z,22.8
2024-05-09T17:33:37.558Z,22.8
2024-05-09T17:36:37.817Z,22.8
2024-05-09T17:39:37.642Z,22.8
2024-05-09T17:42:37.694Z,22.8
2024-05-09T17:45:37.431Z,22.8
2024-05-09T17:48:38.310Z,22.8
2024-05-09T17:51:37.350Z,22.8
2024-05-09T17:54:36.974Z,22.8
2024-05-09T17:57:37.496Z,22.8
2024-05-09T18:00:43.393Z,21.8
2024-05-09T18:03:37.916Z,21.8
2024-05-09T18:06:36.883Z,21.8
2024-05-09T18:09:37.540Z,21.8
2024-05-09T18:12:37.390Z,21.8
2024-05-09T18:15:38.791Z,21.8
2024-05-09T18:18:37.910Z,21.8
2024-05-09T18:21:37.962Z,21.8
2024-05-09T18:24:36.884Z,21.8
2024-05-09T18:27:37.643Z,21.8
2024-05-09T18:30:39.078Z,21.8
2024-05-09T18:33:37.905Z,21.8
2024-05-09T18:36:36.903Z,21.8
2024-05-09T18:39:37.788Z,21.8
2024-05-09T18:42:37.655Z,21.8
2024-05-09T18:45:40.313Z,21.8
2024-05-09T18:48:38.160Z,20.6
2024-05-09T18:51:37.063Z,20.6
2024-05-09T18:54:36.935Z,20.6
2024-05-09T18:57:37.530Z,20.6
2024-05-09T19:00:50.463Z,20.2
2024-05-09T19:03:38.337Z,20.2
2024-05-09T19:06:37.646Z,20.2
2024-05-09T19:09:37.383Z,20.1
2024-05-09T19:12:37.371Z,20.1
2024-05-09T19:15:37.407Z,20.1
2024-05-09T19:18:38.489Z,20
2024-05-09T19:21:43.439Z,20
2024-05-09T19:24:37.523Z,20
2024-05-09T19:27:37.364Z,20
2024-05-09T19:30:43.731Z,19.9
2024-05-09T19:33:37.691Z,19.9
2024-05-09T19:36:37.560Z,19.9
2024-05-09T19:39:37.170Z,19.5
2024-05-09T19:42:37.179Z,19.5
2024-05-09T19:45:38.032Z,19.5
2024-05-09T19:48:37.709Z,19.5
2024-05-09T19:51:37.562Z,19.5
2024-05-09T19:54:37.297Z,19.5
2024-05-09T19:57:36.966Z,19.5
2024-05-09T20:00:45.214Z,19.5
2024-05-09T20:03:38.787Z,19.5
2024-05-09T20:06:36.813Z,19.5
2024-05-09T20:09:37.601Z,19.5
2024-05-09T20:12:37.566Z,19.5
2024-05-09T20:15:38.901Z,19.5
2024-05-09T20:18:37.483Z,18.6
2024-05-09T20:21:37.222Z,18.6
2024-05-09T20:24:36.984Z,18.6
2024-05-09T20:27:37.692Z,18.6
2024-05-09T20:30:38.295Z,18.6
2024-05-09T20:33:37.872Z,18.6
2024-05-09T20:36:37.022Z,18.6
2024-05-09T20:39:37.673Z,18.6
2024-05-09T20:42:37.355Z,18.6
2024-05-09T20:45:37.781Z,18.6
2024-05-09T20:48:38.096Z,18.6
2024-05-09T20:51:37.516Z,18.6
2024-05-09T20:54:37.330Z,18.6
2024-05-09T20:57:36.900Z,18.6
2024-05-09T21:00:46.929Z,18.6
2024-05-09T21:03:38.352Z,18.6
2024-05-09T21:06:37.316Z,18.6
2024-05-09T21:09:36.990Z,17.6
2024-05-09T21:12:37.773Z,17.6
2024-05-09T21:15:37.560Z,17.6
2024-05-09T21:18:38.096Z,17.5
2024-05-09T21:21:36.970Z,17.5
2024-05-09T21:24:37.955Z,17.5
2024-05-09T21:27:37.465Z,17.5
2024-05-09T21:30:44.120Z,17.4
2024-05-09T21:33:38.740Z,17.4
2024-05-09T21:36:36.849Z,17.4
2024-05-09T21:39:37.286Z,17.4
2024-05-09T21:42:36.749Z,17.4
2024-05-09T21:45:38.711Z,17.4
2024-05-09T21:48:37.876Z,17.4
2024-05-09T21:51:37.874Z,17.4
2024-05-09T21:54:37.546Z,17.4
2024-05-09T21:57:37.010Z,17.4
2024-05-09T22:00:40.235Z,17.4
2024-05-09T22:03:37.858Z,17.4
2024-05-09T22:06:37.940Z,17.4
2024-05-09T22:09:37.513Z,17.4
2024-05-09T22:12:37.758Z,17.4
2024-05-09T22:15:41.350Z,17.4
2024-05-09T22:18:37.656Z,17.4
2024-05-09T22:21:37.183Z,17.4
2024-05-09T22:24:36.978Z,17.4
2024-05-09T22:27:37.656Z,17.4
2024-05-09T22:30:41.318Z,17.4
2024-05-09T22:33:40.284Z,17.4
2024-05-09T22:36:37.512Z,17.4
2024-05-09T22:39:36.933Z,17.5
2024-05-09T22:42:37.637Z,17.5
2024-05-09T22:45:37.240Z,17.5
2024-05-09T22:48:38.709Z,17.6
2024-05-09T22:51:36.995Z,17.6
2024-05-09T22:54:37.728Z,17.6
2024-05-09T22:57:37.580Z,17.6
2024-05-09T23:00:38.048Z,17.7
2024-05-09T23:03:37.699Z,17.7
2024-05-09T23:06:38.438Z,17.7
2024-05-09T23:09:38.005Z,17.7
2024-05-09T23:12:38.599Z,17.7
2024-05-09T23:15:39.481Z,17.7
2024-05-09T23:18:38.347Z,17.8
2024-05-09T23:21:38.110Z,17.8
2024-05-09T23:24:37.995Z,17.8
2024-05-09T23:27:38.558Z,17.8
2024-05-09T23:30:43.030Z,17.9
2024-05-09T23:33:38.663Z,17.9
2024-05-09T23:36:38.380Z,17.9
2024-05-09T23:39:37.605Z,18
2024-05-09T23:42:38.131Z,18
2024-05-09T23:45:39.378Z,18
2024-05-09T23:48:37.102Z,18.1
2024-05-09T23:51:37.076Z,18.1
2024-05-09T23:54:37.636Z,18.1
2024-05-09T23:57:37.145Z,18.1
